METAR / TAF

La lista dei METAR e dei TAF non è pensata per essere utilizzata per i briefing meteorologici (in particolare per ragioni tecniche non è possibile garantire la sua costante disponibilità e un aggiornamento continuo). Per i briefing meteorologici si consiglia di utilizzare lo skybriefing di Skyguide oppure il TAMSI (piattaforma  di MeteoSvizzera per l’autobriefing per i professionisti dell’aviazione – per informazioni utilizzare il formulario di contatto).

 

METAR Svizzera

METAR     LSZH 230350Z 32003KT 9999 FEW070 08/05 Q1025 NOSIG=
METAR     LSZH 230420Z 31003KT 9999 FEW070 08/05 Q1025 NOSIG=
METAR     LSGG 230350Z 03012KT CAVOK 14/06 Q1024 NOSIG=
METAR     LSGG 230420Z 03008KT CAVOK 13/05 Q1024 NOSIG=
METAR     LFSB 230430Z 26002KT CAVOK 07/07 Q1026 NOSIG=
METAR     LSZB 230350Z AUTO VRB01KT CAVOK 06/06 Q1024=
METAR     LSZB 230420Z VRB02KT CAVOK 06/05 Q1024 NOSIG=
METAR     LSZA 230350Z AUTO 01004KT CAVOK 14/10 Q1021=
METAR     LSZA 230420Z 35003KT 9999 FEW060 13/10 Q1022 NOSIG=
METAR     LSZG 230350Z AUTO 33001KT CAVOK 08/05 Q1025=
METAR     LSZG 230420Z AUTO 00000KT CAVOK 08/05 Q1025=
METAR     LSZR 230350Z AUTO 11003KT CAVOK 10/08 Q1025=
METAR     LSZR 230420Z AUTO VRB01KT CAVOK 10/07 Q1025=
METAR     LSGS 230350Z AUTO 10002KT CAVOK 12/06 Q1024=
METAR     LSGS 230420Z AUTO VRB01KT CAVOK 12/06 Q1024=
METAR     LSGC 230350Z AUTO VRB03KT CAVOK 06/03 Q1025=
METAR     LSGC 230420Z AUTO 03004KT CAVOK 07/03 Q1025=
METAR     LSZC 230350Z AUTO 28004KT CAVOK 10/06 Q1025=
METAR     LSZC 230420Z AUTO 24004KT CAVOK 09/06 Q1025=
METAR     LSZL 230350Z AUTO 00000KT 9999NDV NCD 14/06 Q1021 RMK=
METAR     LSZL 230420Z NIL=
METAR     LSZS 230350Z AUTO 21003KT CAVOK M03/M04 Q1025=
METAR     LSZS 230420Z AUTO 21001KT CAVOK M02/M04 Q1025=
METAR     LSMA 230350Z AUTO 20004KT 9999NDV NCD 09/06 Q1025 RMK=
METAR     LSMA 230420Z NIL=
METAR     LSMD 230350Z AUTO 00000KT 9999NDV NCD 08/06 Q1025 RMK=
METAR     LSMD 230420Z NIL=
METAR     LSME 230350Z AUTO 00000KT 9999NDV NCD 09/06 Q1025 RMK=
METAR     LSME 230420Z NIL=
METAR     LSMM 230350Z AUTO 10006KT 9999NDV NCD 08/05 Q1025 RMK=
METAR     LSMM 230420Z NIL=
METAR     LSMP 230350Z AUTO 00000KT 9999NDV NCD 08/05 Q1025 RMK=
METAR     LSMP 230420Z NIL=
METAR     LSMS 230350Z AUTO 10002KT CAVOK 12/06 Q1024=
METAR     LSMS 230420Z AUTO VRB01KT CAVOK 12/06 Q1024=
aggiornamento sabato 23 giugno 2018 ore 06:42

TAF Svizzera

TAF     LSZH 230225Z 2303/2409 VRB03KT 9999 FEW070 TX22/2315Z
             TN06/2304Z TN08/2404Z TEMPO 2304/2311 CAVOK TEMPO
             2307/2312 03007KT BECMG 2315/2318 04007KT BECMG
             2322/2401 VRB03KT=
TAF     LSGG 230225Z 2303/2409 04012KT CAVOK TX23/2315Z TN10/2304Z
             TN11/2404Z=
TAF     LFSB 222300Z 2300/2324 01010KT CAVOK TEMPO 2300/2306
             31003KT=
TAF     LSGS 230225Z 2303/2312 VRB03KT CAVOK BECMG 2310/2312
             25012KT 9999 FEW080=
TAF     LSZA 230225Z 2303/2312 VRB03KT CAVOK TEMPO 2304/2309 9999
             FEW050 TEMPO 2310/2312 19010KT=
TAF     LSZB 230225Z 2303/2312 VRB03KT CAVOK=
TAF     LSZR 230225Z 2303/2312 VRB03KT CAVOK TEMPO 2303/2312 9999
             FEW060=
TAF     LSMA 221625Z 2217/2323 05004KT 9999 FEW050 TEMPO 2217/2323
             CAVOK TEMPO 2308/2318 04012KT=
TAF     LSMD 221625Z 2217/2323 VRB05KT 9999 SCT060 TEMPO 2308/2312
             CAVOK=
TAF     LSME 221625Z 2217/2323 05004KT 9999 FEW050 TEMPO 2217/2323
             CAVOK=
TAF     LSMM 221625Z 2217/2323 03007KT 9999 SCT060 TEMPO 2217/2312
             CAVOK=
TAF     LSMP 221625Z 2217/2323 05010KT CAVOK=
aggiornamento sabato 23 giugno 2018 ore 06:02